SÍGUENOS

APP INUMET

Disponible en Google Play

Productos aeronáuticos

  • SIGMET
  • METAR / SPECI
  • TAF
  • AIREP
  • Aviso de aeródromo
  • Pronárea
  • Carta superficie
Fecha : 18/02/2018
FTUY 01 SUMU 18 23 30
SUMU TAF 182330Z 1900/1924 12010KT 9999 FEW030 FEW033TCU BKN100 TX31/1918Z TN20/1909Z PROB30 TEMPO 1903/1908 5000 TSRA FEW040CB OVC060 BECMG 1908/1910 33010KT 9999 SCT020 BKN070 TEMPO1909/1914 6000 RA SCT020 BKN060=
SULS TAF 182330Z 1900/1924 12010KT 9999 FEW030 FEW033TCU BKN100 TX31/1918Z TN20/1909Z PROB30 TEMPO 1903/1908 5000 TSRA FEW040CB OVC060 BECMG 1908/1910 33010KT 9999 SCT020 BKN070 TEMPO1909/1914 6000 RA SCT020 BKN060=
SUAA TAF 182330Z 1900/1924 12010KT 9999 FEW030 FEW033TCU BKN100 TX31/1918Z TN20/1909Z PROB30 TEMPO 1903/1908 5000 TSRA FEW040CB OVC060 BECMG 1908/1910 33010KT 9999 SCT020 BKN070 TEMPO1909/1914 6000 RA SCT020 BKN060=
SUCA TAF 182330Z 1900/1924 12010KT 9999 FEW025 FEW033TCU BKN100 TX31/1918Z TN20/1909Z PROB30 TEMPO 1900/1908 5000 TSRA FEW040CB OVC060 BECMG 1908/1910 33010KT 9999 SCT020 BKN070 TEMPO1909/1914 6000 RA SCT020 BKN060=
SUDU TAF 182330Z 1900/1924 04010KT 9999 FEW030 BKN080 TX32/1918Z TN21/1909Z PROB30 TEMPO 1903/1908 5000 TSRA FEW040CB OVC060 TEMPO1906/1912 6000 RA SCT020 BKN060=
SUSO TAF 182330Z 1900/1924 04010KT 9999 SCT025 BKN080 TX32/1918Z TN21/1909Z PROB30 TEMPO 1903/1908 5000 TSRA FEW040CB OVC060 TEMPO1906/1912 6000 RA SCT020 BKN060=
SURV TAF 182330Z 1900/1924 35010KT 9999 SCT025 BKN080 TX32/1918Z TN21/1909Z PROB30 TEMPO 1903/1908 5000 TSRA FEW040CB OVC060 TEMPO1906/1914 6000 RA SCT020 BKN060=

Predictor : A.Olivera/P.Cotto


Mensajes TAF vigentes - Internacionales


Argentina
TAF AMD SAAR 182350Z 1900/1924 02010KT 9999 FEW040CB TX32/1919Z TN22/1909Z PROB40 TEMPO 1900/1903 2000 GRTSRA SCT035CB BKN045 TEMPO 1903/1908 7000 SHRA BKN040 BECMG 1916/1918 5000 -TSRA SCT030 FEW040CB OVC045 TEMPO 1917/1920 18015G25KT BECMG 1920/1922 VRB03KT 9999 NSW SCT045
TAF SAME 182300Z 1900/1924 05010KT 9999 VCTS SCT030 FEW040TCU FEW050CB SCT080 TN19/1910Z TX30/1920Z TN19/1910Z BECMG 1904/1906 14010KT 9999 SCT040 FEW040CB
TAF SACO 182300Z 1900/1924 05005KT 7000 TS/RASH BKN020 FEW040CB TX34/1918Z TN18/1910Z BECMG 1910/1913 18010KT 9999 SCT020 BKN030
TAF SAEZ 182300Z 1900/1924 02007KT 9999 SCT040 FEW050CB TX32/1918Z TN22/1909Z PROB40 TEMPO 1903/1909 7000 TSRA BKN040 FEW050CB BECMG 1912/914 31010KT 9999 BKN040 OVC070 TEMPO 1914/1921 5000 TSRA BKN040 FEW050CB OVC050
TAF SABE 182300Z 1900/1924 05005KT 9999 SCT040 TX30/1919Z TN24/1909Z BECMG 1903/1905 6000 RA SCT030 BKN045 BECMG 1907/1909 33010KT 9999 NSW SCT035 BKN060 TEMPO 1912/1917 30010G20KT 6000 TSRA SCT020 BKN050
Bolivia
TAF COR SLLP 182200Z 1900/1924 12005KT 9999 SCT013 TX18/1919Z TN05/1910Z BECMG 1906/1910 3000E VCFG FEW002 SCT012 BECMG 1912/1914 9999 NSW SCT017 TEMPO 1919/1922 26013KT 8000 VCTSSH SCT020 FEW023CB SCT070
Brasil
TAF SBSP 182203Z 1900/1924 02003KT 8000 FEW015 TN19/1905Z TX28/1918Z PROB30 1900/1903 BKN012 BECMG 1905/1907 01004KT PROB30 1907/1909 RA BKN008 BECMG 1912/1914 34005KT FEW030 BECMG 1914/1916 33005KT FEW040 PROB30 1918/1920 TSRA SCT040 FEW045CB BECMG 1921/1923 35005KT RMK PGM
TAF SBGR 182203Z 1900/2006 02003KT 8000 FEW020 TN18/1906Z TX28/1918Z PROB30 1900/1903 SCT015 BECMG 1905/1907 02003KT PROB30 1908/1910 RA BKN011 BECMG 1912/1914 35005KT FEW030 BECMG 1914/1916 33005KT FEW040 PROB30 1918/1920 TSRA SCT040 FEW045CB BECMG 1921/1923 09002KT RMK PGM
TAF SBBR 182200Z 1900/1924 34003KT 9999 FEW025TCU TN19/1908Z TX25/191 7Z PROB30 1906/1910 4000 SHRA BKN020 FEW025TCU PROB30 1911/1913 BKN008 BECMG 1913/1914 35006KT BKN030 FEW035TCU PROB40 1915/1919 TSRA FEW035CB BECMG 1922/1923 27002KT 8000 NSC RMK PDC
TAF SBPA 182200Z 1900/1924 10010KT CAVOK TN22/1908Z TX31/1917Z BECMG 1902/1904 03005KT BECMG 1914/1916 34007KT 9999 SCT040 PROB30 TEMPO 1922/1924 4 000 TSRA BKN010 FEW040CB RMK PDW
TAF SBFL 182200Z 1900/1924 01008KT 9999 SCT030 TN22/1908Z TX27/1918Z PROB40 TEMPO 1911/1914 8000 TSRA BKN025 FEW030CB RMK PDW
TAF SBFI 182200Z 1900/1924 08006KT 6000 RA BKN012 FEW035TCU TN21/1906Z Z TX27/1918Z BECMG 1900/1902 9999 NSW BKN010 PROB40 TEMPO 1912/1914 50 00 SHRA SCT010 FEW030TCU BECMG 1914/1916 35008KT BKN025 PROB30 19 22/1924 VCSH BKN020 FEW035TCU RMK PDW
TAF SBRJ 182100Z 1900/1912 12010KT 8000 SCT020 TN24/1908Z TX25/1912Z PROB30 1900/1902 6000 TS BKN017 FEW030CB BECMG 1902/1903 10005KT SCT030 BECMG 1905/1907 34005KT BECMG 1910/1912 02010KT SCT016 RMK PGB
Chile
TAF COR SCEL 182309Z 1900/1924 21012KT CAVOK TX28/1919Z TN13/1910Z BECMG 1901/1903 17008KT TEMPO 1905/1914 VRB02KT 2500 BR SCT003 BKN012 BECMG 1915/1917 21012KT
TAF SCCI 182240Z 1900/2000 26017G27KT 9999 FEW030 SCT040 TX14/1918Z TN06/1909Z BECMG 1905/1907 28010KT FEW040 BECMG 1913/1915 30015G25KT
Ecuador
SEQM 182240Z 1900/1924 VRB03KT 9999 FEW010 BKN020 BKN080 FM190600 00000KT 9999 SCT005 OVC016 TEMPO 1908/1910 0800 FG FM191200 VRB03KT 9999 SCT030 SCT100 FM191800 36012KT 9999 BKN030 BKN100 PROB30 TEMPO 1919/1921 TSRA FEW026CB BKN030 BKN100 TX22/1919Z TN12/1911Z
EEUU
KMIA 190257Z 1903/2006 09010KT P6SM FEW030 FM191500 12015G25KT P6SM SCT035 BKN060 FM200000 09014KT P6SM SCT050
KJFK 190238Z 1903/2006 VRB03KT P6SM SCT250 FM190900 15008KT P6SM BKN250 FM191500 18010KT P6SM SCT100 BKN250 FM192000 18011KT P6SM SCT025 BKN050 FM192300 19008KT 5SM -SHRA BR BKN020 OVC040 FM200400 21008KT 5SM BR BKN015
KLGA 190238Z 1903/2006 VRB04KT P6SM SCT250 FM190900 15006KT P6SM BKN250 FM191500 17009KT P6SM SCT120 BKN250 FM192000 17009KT P6SM FEW025 BKN050 FM192300 18007KT 6SM -SHRA BR BKN020 OVC040 FM200500 20006KT 5SM BR BKN020
KIAD 182327Z 1900/2006 12004KT P6SM FEW250 FM191100 17006KT P6SM BKN060 FM191500 18008KT 4SM BR OVC025 FM191800 18010KT P6SM BKN010 FM192000 18009KT P6SM BKN035
KDCA 182327Z 1900/2006 11004KT P6SM FEW250 FM191100 17005KT P6SM BKN140 FM191700 18007KT 5SM BR BKN010 FM192000 19007KT P6SM OVC035 FM200500 20007KT P6SM BKN250 WS020/23035KT
Francia
TAF LFPO 182300Z 1900/2006 13005KT CAVOK TEMPO 1900/1903 2500 BR TEMPO 1912/1924 4000 -RA BKN014 PROB40 TEMPO 1915/1918 2000 -RA BKN007 PROB30 TEMPO 1918/2006 1500 BR BKN004
Paraguay
TAF SGAS 182146Z 1900/2000 07005KT 9000 -RA BKN010 TX27/1918Z TN22/1909Z BECMG 1906/1909 05010KT 5000 TSRA BKN015 FEW040CB BECMG 1912/1915 VRB03KT 9999 BKN027
Venezuela
SVMI 182200Z 1900/2000 09007KT 9999 SCT016 TX31/18Z TN26/09Z BECMG 1900/1904 09008KT FEW016

* Datos extraidos del Text DataServer de la NOAA (NOAA TEXT DATA SERVER)

Instituto Uruguayo de Meteorología

Dr. Javier Barrios Amorín 1488 - CP 11200
Mesa Central (598) 1895 - Desde el interior 21895

Montevideo - Uruguay